sensor_id;sensor_type;location;lat;lon;timestamp;P1;durP1;ratioP1;P2;durP2;ratioP2
26920;SDS011;14483;47.844;9.660;2023-11-18T00:02:04;5.07;;;2.47;;
26920;SDS011;14483;47.844;9.660;2023-11-18T00:04:31;5.07;;;2.72;;
26920;SDS011;14483;47.844;9.660;2023-11-18T00:06:57;7.20;;;2.92;;
26920;SDS011;14483;47.844;9.660;2023-11-18T00:09:24;4.63;;;2.50;;
26920;SDS011;14483;47.844;9.660;2023-11-18T00:11:50;6.03;;;2.53;;
26920;SDS011;14483;47.844;9.660;2023-11-18T00:14:18;4.70;;;2.40;;
26920;SDS011;14483;47.844;9.660;2023-11-18T00:16:46;5.20;;;2.90;;
26920;SDS011;14483;47.844;9.660;2023-11-18T00:19:12;7.00;;;3.00;;
26920;SDS011;14483;47.844;9.660;2023-11-18T00:21:38;6.30;;;2.88;;
26920;SDS011;14483;47.844;9.660;2023-11-18T00:24:05;5.47;;;2.92;;
26920;SDS011;14483;47.844;9.660;2023-11-18T00:26:33;7.93;;;3.10;;
26920;SDS011;14483;47.844;9.660;2023-11-18T00:28:59;4.43;;;2.47;;
26920;SDS011;14483;47.844;9.660;2023-11-18T00:31:27;7.72;;;3.63;;
26920;SDS011;14483;47.844;9.660;2023-11-18T00:33:54;5.43;;;2.67;;
26920;SDS011;14483;47.844;9.660;2023-11-18T00:36:21;7.22;;;3.42;;
26920;SDS011;14483;47.844;9.660;2023-11-18T00:38:47;6.72;;;3.35;;
26920;SDS011;14483;47.844;9.660;2023-11-18T00:41:14;8.85;;;2.92;;
26920;SDS011;14483;47.844;9.660;2023-11-18T00:43:42;6.93;;;3.30;;
26920;SDS011;14483;47.844;9.660;2023-11-18T00:46:08;6.18;;;2.55;;
26920;SDS011;14483;47.844;9.660;2023-11-18T00:48:36;10.07;;;3.70;;
26920;SDS011;14483;47.844;9.660;2023-11-18T00:51:02;6.45;;;3.30;;
26920;SDS011;14483;47.844;9.660;2023-11-18T00:53:29;6.25;;;3.30;;
26920;SDS011;14483;47.844;9.660;2023-11-18T00:55:55;7.57;;;3.50;;
26920;SDS011;14483;47.844;9.660;2023-11-18T00:58:22;6.90;;;3.53;;
26920;SDS011;14483;47.844;9.660;2023-11-18T01:00:48;5.28;;;2.65;;
26920;SDS011;14483;47.844;9.660;2023-11-18T01:03:14;3.88;;;2.28;;
26920;SDS011;14483;47.844;9.660;2023-11-18T01:05:42;4.57;;;2.80;;
26920;SDS011;14483;47.844;9.660;2023-11-18T01:08:09;5.93;;;3.08;;
26920;SDS011;14483;47.844;9.660;2023-11-18T01:10:35;5.25;;;2.65;;
26920;SDS011;14483;47.844;9.660;2023-11-18T01:13:03;5.50;;;3.25;;
26920;SDS011;14483;47.844;9.660;2023-11-18T01:15:31;7.95;;;2.88;;
26920;SDS011;14483;47.844;9.660;2023-11-18T01:17:58;5.22;;;3.10;;
26920;SDS011;14483;47.844;9.660;2023-11-18T01:20:24;5.75;;;3.15;;
26920;SDS011;14483;47.844;9.660;2023-11-18T01:22:52;6.78;;;3.10;;
26920;SDS011;14483;47.844;9.660;2023-11-18T01:25:19;3.90;;;2.42;;
26920;SDS011;14483;47.844;9.660;2023-11-18T01:27:45;4.93;;;2.38;;
26920;SDS011;14483;47.844;9.660;2023-11-18T01:30:13;5.25;;;2.75;;
26920;SDS011;14483;47.844;9.660;2023-11-18T01:32:39;6.72;;;3.30;;
26920;SDS011;14483;47.844;9.660;2023-11-18T01:35:06;5.93;;;2.75;;
26920;SDS011;14483;47.844;9.660;2023-11-18T01:37:33;6.55;;;3.22;;
26920;SDS011;14483;47.844;9.660;2023-11-18T01:40:01;6.30;;;2.95;;
26920;SDS011;14483;47.844;9.660;2023-11-18T01:42:30;6.40;;;2.95;;
26920;SDS011;14483;47.844;9.660;2023-11-18T01:44:57;6.60;;;3.25;;
26920;SDS011;14483;47.844;9.660;2023-11-18T01:47:24;4.88;;;3.03;;
26920;SDS011;14483;47.844;9.660;2023-11-18T01:49:51;4.75;;;2.35;;
26920;SDS011;14483;47.844;9.660;2023-11-18T01:52:18;7.07;;;3.05;;
26920;SDS011;14483;47.844;9.660;2023-11-18T01:54:46;6.22;;;2.95;;
26920;SDS011;14483;47.844;9.660;2023-11-18T01:57:15;4.55;;;2.72;;
26920;SDS011;14483;47.844;9.660;2023-11-18T01:59:41;3.92;;;2.28;;
26920;SDS011;14483;47.844;9.660;2023-11-18T02:02:08;5.65;;;2.63;;
26920;SDS011;14483;47.844;9.660;2023-11-18T02:04:34;3.95;;;2.40;;
26920;SDS011;14483;47.844;9.660;2023-11-18T02:07:01;7.10;;;2.85;;
26920;SDS011;14483;47.844;9.660;2023-11-18T02:09:33;5.83;;;2.17;;
26920;SDS011;14483;47.844;9.660;2023-11-18T02:12:00;5.00;;;3.08;;
26920;SDS011;14483;47.844;9.660;2023-11-18T02:14:31;5.18;;;2.97;;
26920;SDS011;14483;47.844;9.660;2023-11-18T02:16:59;4.57;;;2.70;;
26920;SDS011;14483;47.844;9.660;2023-11-18T02:19:25;5.32;;;3.22;;
26920;SDS011;14483;47.844;9.660;2023-11-18T02:21:52;7.57;;;2.67;;
26920;SDS011;14483;47.844;9.660;2023-11-18T02:24:25;6.15;;;2.55;;
26920;SDS011;14483;47.844;9.660;2023-11-18T02:26:53;6.18;;;2.63;;
26920;SDS011;14483;47.844;9.660;2023-11-18T02:29:20;4.28;;;2.40;;
26920;SDS011;14483;47.844;9.660;2023-11-18T02:31:46;4.93;;;2.65;;
26920;SDS011;14483;47.844;9.660;2023-11-18T02:34:16;4.18;;;2.20;;
26920;SDS011;14483;47.844;9.660;2023-11-18T02:36:46;5.50;;;2.67;;
26920;SDS011;14483;47.844;9.660;2023-11-18T02:39:22;5.22;;;2.55;;
26920;SDS011;14483;47.844;9.660;2023-11-18T02:41:49;5.15;;;2.88;;
26920;SDS011;14483;47.844;9.660;2023-11-18T02:44:19;5.50;;;3.28;;
26920;SDS011;14483;47.844;9.660;2023-11-18T02:46:48;3.33;;;1.85;;
26920;SDS011;14483;47.844;9.660;2023-11-18T02:49:14;6.15;;;2.85;;
26920;SDS011;14483;47.844;9.660;2023-11-18T02:51:42;5.53;;;3.03;;
26920;SDS011;14483;47.844;9.660;2023-11-18T02:54:12;4.03;;;2.50;;
26920;SDS011;14483;47.844;9.660;2023-11-18T02:56:38;5.13;;;3.28;;
26920;SDS011;14483;47.844;9.660;2023-11-18T02:59:05;4.97;;;2.67;;
26920;SDS011;14483;47.844;9.660;2023-11-18T03:01:33;4.65;;;2.42;;
26920;SDS011;14483;47.844;9.660;2023-11-18T03:04:00;4.53;;;2.75;;
26920;SDS011;14483;47.844;9.660;2023-11-18T03:06:27;5.53;;;2.92;;
26920;SDS011;14483;47.844;9.660;2023-11-18T03:08:53;6.07;;;3.03;;
26920;SDS011;14483;47.844;9.660;2023-11-18T03:11:20;6.43;;;3.40;;
26920;SDS011;14483;47.844;9.660;2023-11-18T03:13:46;4.78;;;2.90;;
26920;SDS011;14483;47.844;9.660;2023-11-18T03:16:12;4.40;;;2.50;;
26920;SDS011;14483;47.844;9.660;2023-11-18T03:18:40;4.97;;;2.70;;
26920;SDS011;14483;47.844;9.660;2023-11-18T03:21:10;4.38;;;2.60;;
26920;SDS011;14483;47.844;9.660;2023-11-18T03:23:37;5.65;;;2.67;;
26920;SDS011;14483;47.844;9.660;2023-11-18T03:26:03;5.13;;;2.60;;
26920;SDS011;14483;47.844;9.660;2023-11-18T03:28:30;3.97;;;2.30;;
26920;SDS011;14483;47.844;9.660;2023-11-18T03:30:57;4.30;;;2.47;;
26920;SDS011;14483;47.844;9.660;2023-11-18T03:33:24;4.68;;;2.80;;
26920;SDS011;14483;47.844;9.660;2023-11-18T03:35:51;3.88;;;2.17;;
26920;SDS011;14483;47.844;9.660;2023-11-18T03:38:20;3.47;;;1.92;;
26920;SDS011;14483;47.844;9.660;2023-11-18T03:40:46;5.25;;;2.83;;
26920;SDS011;14483;47.844;9.660;2023-11-18T03:43:12;6.25;;;2.67;;
26920;SDS011;14483;47.844;9.660;2023-11-18T03:45:39;6.32;;;2.80;;
26920;SDS011;14483;47.844;9.660;2023-11-18T03:48:06;5.53;;;2.40;;
26920;SDS011;14483;47.844;9.660;2023-11-18T03:50:32;6.38;;;3.35;;
26920;SDS011;14483;47.844;9.660;2023-11-18T03:53:00;4.00;;;2.58;;
26920;SDS011;14483;47.844;9.660;2023-11-18T03:55:28;4.97;;;2.90;;
26920;SDS011;14483;47.844;9.660;2023-11-18T03:57:54;5.85;;;2.90;;
26920;SDS011;14483;47.844;9.660;2023-11-18T04:00:22;5.93;;;2.70;;
26920;SDS011;14483;47.844;9.660;2023-11-18T04:03:04;6.00;;;3.15;;
26920;SDS011;14483;47.844;9.660;2023-11-18T04:05:32;6.43;;;3.17;;
26920;SDS011;14483;47.844;9.660;2023-11-18T04:07:59;6.80;;;3.78;;
26920;SDS011;14483;47.844;9.660;2023-11-18T04:10:26;6.82;;;3.88;;
26920;SDS011;14483;47.844;9.660;2023-11-18T04:12:52;6.25;;;3.75;;
26920;SDS011;14483;47.844;9.660;2023-11-18T04:15:19;6.15;;;3.72;;
26920;SDS011;14483;47.844;9.660;2023-11-18T04:17:45;6.65;;;3.35;;
26920;SDS011;14483;47.844;9.660;2023-11-18T04:20:13;5.53;;;3.33;;
26920;SDS011;14483;47.844;9.660;2023-11-18T04:22:41;7.53;;;4.43;;
26920;SDS011;14483;47.844;9.660;2023-11-18T04:25:07;5.68;;;3.50;;
26920;SDS011;14483;47.844;9.660;2023-11-18T04:27:35;6.15;;;3.63;;
26920;SDS011;14483;47.844;9.660;2023-11-18T04:30:01;7.47;;;2.75;;
26920;SDS011;14483;47.844;9.660;2023-11-18T04:32:28;7.90;;;3.67;;
26920;SDS011;14483;47.844;9.660;2023-11-18T04:34:57;14.15;;;3.67;;
26920;SDS011;14483;47.844;9.660;2023-11-18T04:37:25;10.38;;;3.83;;
26920;SDS011;14483;47.844;9.660;2023-11-18T04:39:51;7.10;;;3.40;;
26920;SDS011;14483;47.844;9.660;2023-11-18T04:42:19;5.93;;;3.22;;
26920;SDS011;14483;47.844;9.660;2023-11-18T04:44:45;6.13;;;3.38;;
26920;SDS011;14483;47.844;9.660;2023-11-18T04:47:11;7.30;;;3.97;;
26920;SDS011;14483;47.844;9.660;2023-11-18T04:49:38;6.43;;;3.17;;
26920;SDS011;14483;47.844;9.660;2023-11-18T04:52:04;6.75;;;3.40;;
26920;SDS011;14483;47.844;9.660;2023-11-18T04:54:32;6.00;;;3.47;;
26920;SDS011;14483;47.844;9.660;2023-11-18T04:56:59;5.85;;;3.15;;
26920;SDS011;14483;47.844;9.660;2023-11-18T04:59:25;4.63;;;2.60;;
26920;SDS011;14483;47.844;9.660;2023-11-18T05:01:52;7.07;;;3.40;;
26920;SDS011;14483;47.844;9.660;2023-11-18T05:04:19;5.43;;;3.65;;
26920;SDS011;14483;47.844;9.660;2023-11-18T05:06:45;5.45;;;3.35;;
26920;SDS011;14483;47.844;9.660;2023-11-18T05:09:11;5.50;;;3.15;;
26920;SDS011;14483;47.844;9.660;2023-11-18T05:11:39;5.18;;;3.00;;
26920;SDS011;14483;47.844;9.660;2023-11-18T05:14:06;6.63;;;3.35;;
26920;SDS011;14483;47.844;9.660;2023-11-18T05:16:32;4.20;;;2.60;;
26920;SDS011;14483;47.844;9.660;2023-11-18T05:18:58;5.53;;;2.63;;
26920;SDS011;14483;47.844;9.660;2023-11-18T05:21:25;4.72;;;2.70;;
26920;SDS011;14483;47.844;9.660;2023-11-18T05:23:51;4.80;;;2.35;;
26920;SDS011;14483;47.844;9.660;2023-11-18T05:26:18;6.75;;;3.10;;
26920;SDS011;14483;47.844;9.660;2023-11-18T05:28:45;4.03;;;2.20;;
26920;SDS011;14483;47.844;9.660;2023-11-18T05:31:14;3.70;;;2.05;;
26920;SDS011;14483;47.844;9.660;2023-11-18T05:33:41;6.40;;;3.00;;
26920;SDS011;14483;47.844;9.660;2023-11-18T05:36:08;6.78;;;2.40;;
26920;SDS011;14483;47.844;9.660;2023-11-18T05:38:36;4.10;;;2.35;;
26920;SDS011;14483;47.844;9.660;2023-11-18T05:41:02;5.03;;;2.78;;
26920;SDS011;14483;47.844;9.660;2023-11-18T05:43:30;4.03;;;1.80;;
26920;SDS011;14483;47.844;9.660;2023-11-18T05:46:03;4.82;;;2.30;;
26920;SDS011;14483;47.844;9.660;2023-11-18T05:48:45;5.20;;;2.47;;
26920;SDS011;14483;47.844;9.660;2023-11-18T05:51:12;5.05;;;2.55;;
26920;SDS011;14483;47.844;9.660;2023-11-18T05:53:41;3.78;;;2.20;;
26920;SDS011;14483;47.844;9.660;2023-11-18T05:56:10;4.75;;;2.90;;
26920;SDS011;14483;47.844;9.660;2023-11-18T05:58:37;8.60;;;2.45;;
26920;SDS011;14483;47.844;9.660;2023-11-18T06:01:05;4.82;;;2.70;;
26920;SDS011;14483;47.844;9.660;2023-11-18T06:03:33;5.97;;;2.70;;
26920;SDS011;14483;47.844;9.660;2023-11-18T06:06:02;3.90;;;2.38;;
26920;SDS011;14483;47.844;9.660;2023-11-18T06:08:31;4.68;;;2.47;;
26920;SDS011;14483;47.844;9.660;2023-11-18T06:10:58;5.38;;;2.67;;
26920;SDS011;14483;47.844;9.660;2023-11-18T06:13:25;4.32;;;2.22;;
26920;SDS011;14483;47.844;9.660;2023-11-18T06:15:52;4.93;;;2.40;;
26920;SDS011;14483;47.844;9.660;2023-11-18T06:18:20;7.45;;;3.00;;
26920;SDS011;14483;47.844;9.660;2023-11-18T06:20:46;5.55;;;2.85;;
26920;SDS011;14483;47.844;9.660;2023-11-18T06:23:13;7.70;;;3.17;;
26920;SDS011;14483;47.844;9.660;2023-11-18T06:25:43;5.03;;;2.65;;
26920;SDS011;14483;47.844;9.660;2023-11-18T06:28:10;7.53;;;3.40;;
26920;SDS011;14483;47.844;9.660;2023-11-18T06:30:37;5.78;;;3.05;;
26920;SDS011;14483;47.844;9.660;2023-11-18T06:33:03;7.47;;;3.20;;
26920;SDS011;14483;47.844;9.660;2023-11-18T06:35:31;5.30;;;3.33;;
26920;SDS011;14483;47.844;9.660;2023-11-18T06:38:00;5.35;;;3.20;;
26920;SDS011;14483;47.844;9.660;2023-11-18T06:40:27;5.75;;;3.45;;
26920;SDS011;14483;47.844;9.660;2023-11-18T06:42:55;7.03;;;3.67;;
26920;SDS011;14483;47.844;9.660;2023-11-18T06:45:27;7.63;;;3.75;;
26920;SDS011;14483;47.844;9.660;2023-11-18T06:47:54;6.40;;;3.88;;
26920;SDS011;14483;47.844;9.660;2023-11-18T06:50:21;11.63;;;3.83;;
26920;SDS011;14483;47.844;9.660;2023-11-18T06:52:50;8.40;;;3.05;;
26920;SDS011;14483;47.844;9.660;2023-11-18T06:55:17;9.13;;;3.85;;
26920;SDS011;14483;47.844;9.660;2023-11-18T06:57:43;6.85;;;3.95;;
26920;SDS011;14483;47.844;9.660;2023-11-18T07:00:10;7.30;;;4.32;;
26920;SDS011;14483;47.844;9.660;2023-11-18T07:02:39;8.02;;;4.78;;
26920;SDS011;14483;47.844;9.660;2023-11-18T07:05:05;8.25;;;4.25;;
26920;SDS011;14483;47.844;9.660;2023-11-18T07:07:32;6.78;;;4.40;;
26920;SDS011;14483;47.844;9.660;2023-11-18T07:10:00;9.35;;;4.72;;
26920;SDS011;14483;47.844;9.660;2023-11-18T07:12:26;7.68;;;4.35;;
26920;SDS011;14483;47.844;9.660;2023-11-18T07:14:52;7.90;;;4.28;;
26920;SDS011;14483;47.844;9.660;2023-11-18T07:17:20;7.07;;;4.25;;
26920;SDS011;14483;47.844;9.660;2023-11-18T07:19:46;7.78;;;4.05;;
26920;SDS011;14483;47.844;9.660;2023-11-18T07:22:12;10.82;;;4.38;;
26920;SDS011;14483;47.844;9.660;2023-11-18T07:24:39;9.45;;;4.82;;
26920;SDS011;14483;47.844;9.660;2023-11-18T07:27:07;10.25;;;4.32;;
26920;SDS011;14483;47.844;9.660;2023-11-18T07:29:36;7.57;;;3.97;;
26920;SDS011;14483;47.844;9.660;2023-11-18T07:32:03;9.30;;;4.75;;
26920;SDS011;14483;47.844;9.660;2023-11-18T07:34:30;8.63;;;4.82;;
26920;SDS011;14483;47.844;9.660;2023-11-18T07:36:57;7.40;;;4.47;;
26920;SDS011;14483;47.844;9.660;2023-11-18T07:39:24;6.30;;;4.00;;
26920;SDS011;14483;47.844;9.660;2023-11-18T07:42:10;6.00;;;3.53;;
26920;SDS011;14483;47.844;9.660;2023-11-18T07:44:36;8.55;;;4.38;;
26920;SDS011;14483;47.844;9.660;2023-11-18T07:47:03;6.75;;;3.92;;
26920;SDS011;14483;47.844;9.660;2023-11-18T07:49:30;8.02;;;4.18;;
26920;SDS011;14483;47.844;9.660;2023-11-18T07:51:56;8.57;;;4.30;;
26920;SDS011;14483;47.844;9.660;2023-11-18T07:54:23;7.93;;;4.22;;
26920;SDS011;14483;47.844;9.660;2023-11-18T07:56:49;8.93;;;3.90;;
26920;SDS011;14483;47.844;9.660;2023-11-18T07:59:18;7.22;;;4.25;;
26920;SDS011;14483;47.844;9.660;2023-11-18T08:01:45;10.25;;;4.78;;
26920;SDS011;14483;47.844;9.660;2023-11-18T08:04:12;7.15;;;4.35;;
26920;SDS011;14483;47.844;9.660;2023-11-18T08:06:38;8.68;;;4.50;;
26920;SDS011;14483;47.844;9.660;2023-11-18T08:09:05;9.98;;;4.22;;
26920;SDS011;14483;47.844;9.660;2023-11-18T08:11:35;5.43;;;3.20;;
26920;SDS011;14483;47.844;9.660;2023-11-18T08:14:01;7.32;;;3.78;;
26920;SDS011;14483;47.844;9.660;2023-11-18T08:16:29;11.43;;;4.10;;
26920;SDS011;14483;47.844;9.660;2023-11-18T08:18:57;8.18;;;4.90;;
26920;SDS011;14483;47.844;9.660;2023-11-18T08:21:24;6.90;;;4.03;;
26920;SDS011;14483;47.844;9.660;2023-11-18T08:23:50;7.28;;;4.25;;
26920;SDS011;14483;47.844;9.660;2023-11-18T08:26:16;7.75;;;3.90;;
26920;SDS011;14483;47.844;9.660;2023-11-18T08:28:43;8.75;;;4.68;;
26920;SDS011;14483;47.844;9.660;2023-11-18T08:31:09;6.63;;;3.42;;
26920;SDS011;14483;47.844;9.660;2023-11-18T08:33:37;12.10;;;4.50;;
26920;SDS011;14483;47.844;9.660;2023-11-18T08:36:03;9.25;;;4.35;;
26920;SDS011;14483;47.844;9.660;2023-11-18T08:38:30;7.57;;;3.97;;
26920;SDS011;14483;47.844;9.660;2023-11-18T08:40:56;6.75;;;3.40;;
26920;SDS011;14483;47.844;9.660;2023-11-18T08:43:23;4.45;;;2.63;;
26920;SDS011;14483;47.844;9.660;2023-11-18T08:45:50;5.70;;;3.13;;
26920;SDS011;14483;47.844;9.660;2023-11-18T08:48:16;6.18;;;3.42;;
26920;SDS011;14483;47.844;9.660;2023-11-18T08:50:44;7.35;;;2.67;;
26920;SDS011;14483;47.844;9.660;2023-11-18T08:53:11;5.43;;;2.45;;
26920;SDS011;14483;47.844;9.660;2023-11-18T08:55:38;4.78;;;2.25;;
26920;SDS011;14483;47.844;9.660;2023-11-18T08:58:05;3.83;;;2.05;;
26920;SDS011;14483;47.844;9.660;2023-11-18T09:00:41;4.20;;;1.98;;
26920;SDS011;14483;47.844;9.660;2023-11-18T09:03:15;4.95;;;2.33;;
26920;SDS011;14483;47.844;9.660;2023-11-18T09:05:52;3.65;;;1.88;;
26920;SDS011;14483;47.844;9.660;2023-11-18T09:08:29;3.75;;;1.95;;
26920;SDS011;14483;47.844;9.660;2023-11-18T09:10:57;5.20;;;2.00;;
26920;SDS011;14483;47.844;9.660;2023-11-18T09:13:24;4.32;;;2.30;;
26920;SDS011;14483;47.844;9.660;2023-11-18T09:15:53;6.18;;;2.70;;
26920;SDS011;14483;47.844;9.660;2023-11-18T09:18:21;4.28;;;2.63;;
26920;SDS011;14483;47.844;9.660;2023-11-18T09:20:47;4.10;;;2.50;;
26920;SDS011;14483;47.844;9.660;2023-11-18T09:23:15;4.65;;;2.38;;
26920;SDS011;14483;47.844;9.660;2023-11-18T09:25:41;3.75;;;1.95;;
26920;SDS011;14483;47.844;9.660;2023-11-18T09:28:11;4.00;;;1.92;;
26920;SDS011;14483;47.844;9.660;2023-11-18T09:30:39;6.28;;;2.00;;
26920;SDS011;14483;47.844;9.660;2023-11-18T09:33:14;3.78;;;2.10;;
26920;SDS011;14483;47.844;9.660;2023-11-18T09:35:50;4.40;;;2.30;;
26920;SDS011;14483;47.844;9.660;2023-11-18T09:38:18;4.25;;;2.25;;
26920;SDS011;14483;47.844;9.660;2023-11-18T09:40:47;4.82;;;2.03;;
26920;SDS011;14483;47.844;9.660;2023-11-18T09:43:15;3.22;;;1.65;;
26920;SDS011;14483;47.844;9.660;2023-11-18T09:45:43;3.90;;;2.20;;
26920;SDS011;14483;47.844;9.660;2023-11-18T09:48:10;4.53;;;2.22;;
26920;SDS011;14483;47.844;9.660;2023-11-18T09:50:42;6.55;;;2.30;;
26920;SDS011;14483;47.844;9.660;2023-11-18T09:53:09;4.13;;;1.98;;
26920;SDS011;14483;47.844;9.660;2023-11-18T09:55:42;3.60;;;1.67;;
26920;SDS011;14483;47.844;9.660;2023-11-18T09:58:12;3.28;;;1.60;;
26920;SDS011;14483;47.844;9.660;2023-11-18T10:00:41;3.65;;;1.63;;
26920;SDS011;14483;47.844;9.660;2023-11-18T10:03:08;3.47;;;1.73;;
26920;SDS011;14483;47.844;9.660;2023-11-18T10:05:39;2.13;;;1.48;;
26920;SDS011;14483;47.844;9.660;2023-11-18T10:08:09;2.45;;;1.23;;
26920;SDS011;14483;47.844;9.660;2023-11-18T10:10:36;2.92;;;1.58;;
26920;SDS011;14483;47.844;9.660;2023-11-18T10:13:11;3.70;;;1.67;;
26920;SDS011;14483;47.844;9.660;2023-11-18T10:15:46;3.80;;;1.38;;
26920;SDS011;14483;47.844;9.660;2023-11-18T10:18:17;2.25;;;1.25;;
26920;SDS011;14483;47.844;9.660;2023-11-18T10:20:48;2.50;;;1.33;;
26920;SDS011;14483;47.844;9.660;2023-11-18T10:23:17;5.40;;;2.08;;
26920;SDS011;14483;47.844;9.660;2023-11-18T10:25:46;4.95;;;1.67;;
26920;SDS011;14483;47.844;9.660;2023-11-18T10:28:24;3.97;;;1.60;;
26920;SDS011;14483;47.844;9.660;2023-11-18T10:30:52;2.78;;;1.13;;
26920;SDS011;14483;47.844;9.660;2023-11-18T10:33:19;5.57;;;1.67;;
26920;SDS011;14483;47.844;9.660;2023-11-18T10:35:50;2.20;;;1.30;;
26920;SDS011;14483;47.844;9.660;2023-11-18T10:38:17;2.10;;;1.05;;
26920;SDS011;14483;47.844;9.660;2023-11-18T10:40:44;4.15;;;1.65;;
26920;SDS011;14483;47.844;9.660;2023-11-18T10:43:10;2.80;;;1.33;;
26920;SDS011;14483;47.844;9.660;2023-11-18T10:45:38;2.60;;;1.52;;
26920;SDS011;14483;47.844;9.660;2023-11-18T10:48:05;2.85;;;1.15;;
26920;SDS011;14483;47.844;9.660;2023-11-18T10:50:32;2.85;;;1.00;;
26920;SDS011;14483;47.844;9.660;2023-11-18T10:52:59;2.13;;;1.30;;
26920;SDS011;14483;47.844;9.660;2023-11-18T10:55:34;3.42;;;1.55;;
26920;SDS011;14483;47.844;9.660;2023-11-18T10:58:01;2.65;;;1.52;;
26920;SDS011;14483;47.844;9.660;2023-11-18T11:00:29;1.92;;;1.17;;
26920;SDS011;14483;47.844;9.660;2023-11-18T11:03:00;3.38;;;1.55;;
26920;SDS011;14483;47.844;9.660;2023-11-18T11:05:27;3.72;;;1.85;;
26920;SDS011;14483;47.844;9.660;2023-11-18T11:07:57;2.55;;;1.10;;
26920;SDS011;14483;47.844;9.660;2023-11-18T11:10:24;2.15;;;1.02;;
26920;SDS011;14483;47.844;9.660;2023-11-18T11:12:54;2.25;;;1.25;;
26920;SDS011;14483;47.844;9.660;2023-11-18T11:15:22;2.45;;;1.10;;
26920;SDS011;14483;47.844;9.660;2023-11-18T11:17:52;2.10;;;1.10;;
26920;SDS011;14483;47.844;9.660;2023-11-18T11:20:22;2.40;;;1.30;;
26920;SDS011;14483;47.844;9.660;2023-11-18T11:22:56;2.20;;;1.10;;
26920;SDS011;14483;47.844;9.660;2023-11-18T11:25:35;1.77;;;0.90;;
26920;SDS011;14483;47.844;9.660;2023-11-18T11:28:05;4.80;;;0.93;;
26920;SDS011;14483;47.844;9.660;2023-11-18T11:30:37;1.45;;;0.77;;
26920;SDS011;14483;47.844;9.660;2023-11-18T11:33:10;1.67;;;0.80;;
26920;SDS011;14483;47.844;9.660;2023-11-18T11:35:44;1.88;;;1.08;;
26920;SDS011;14483;47.844;9.660;2023-11-18T11:38:13;1.38;;;0.73;;
26920;SDS011;14483;47.844;9.660;2023-11-18T11:40:42;1.55;;;0.80;;
26920;SDS011;14483;47.844;9.660;2023-11-18T11:43:09;0.90;;;0.50;;
26920;SDS011;14483;47.844;9.660;2023-11-18T11:45:35;2.45;;;0.88;;
26920;SDS011;14483;47.844;9.660;2023-11-18T11:48:03;1.20;;;0.70;;
26920;SDS011;14483;47.844;9.660;2023-11-18T11:53:32;2.47;;;0.80;;
26920;SDS011;14483;47.844;9.660;2023-11-18T11:55:59;1.58;;;0.90;;
26920;SDS011;14483;47.844;9.660;2023-11-18T11:58:31;1.73;;;0.80;;
26920;SDS011;14483;47.844;9.660;2023-11-18T12:00:59;2.97;;;0.90;;
26920;SDS011;14483;47.844;9.660;2023-11-18T12:03:26;2.03;;;0.98;;
26920;SDS011;14483;47.844;9.660;2023-11-18T12:05:54;2.65;;;1.08;;
26920;SDS011;14483;47.844;9.660;2023-11-18T12:08:21;1.80;;;0.85;;
26920;SDS011;14483;47.844;9.660;2023-11-18T12:10:53;1.67;;;0.70;;
26920;SDS011;14483;47.844;9.660;2023-11-18T12:13:21;1.73;;;0.57;;
26920;SDS011;14483;47.844;9.660;2023-11-18T12:15:51;1.58;;;0.82;;
26920;SDS011;14483;47.844;9.660;2023-11-18T12:18:22;1.77;;;0.95;;
26920;SDS011;14483;47.844;9.660;2023-11-18T12:20:49;3.72;;;0.60;;
26920;SDS011;14483;47.844;9.660;2023-11-18T12:23:19;3.60;;;1.02;;
26920;SDS011;14483;47.844;9.660;2023-11-18T12:25:48;2.30;;;0.60;;
26920;SDS011;14483;47.844;9.660;2023-11-18T12:28:21;1.83;;;0.75;;
26920;SDS011;14483;47.844;9.660;2023-11-18T12:30:52;2.03;;;0.90;;
26920;SDS011;14483;47.844;9.660;2023-11-18T12:33:17;1.27;;;0.40;;
26920;SDS011;14483;47.844;9.660;2023-11-18T12:35:51;1.10;;;0.65;;
26920;SDS011;14483;47.844;9.660;2023-11-18T12:38:30;2.20;;;0.70;;
26920;SDS011;14483;47.844;9.660;2023-11-18T12:41:13;1.88;;;0.80;;
26920;SDS011;14483;47.844;9.660;2023-11-18T12:43:49;3.22;;;0.60;;
26920;SDS011;14483;47.844;9.660;2023-11-18T12:46:39;1.50;;;0.50;;
26920;SDS011;14483;47.844;9.660;2023-11-18T12:49:09;1.73;;;0.70;;
26920;SDS011;14483;47.844;9.660;2023-11-18T12:51:40;2.10;;;0.90;;
26920;SDS011;14483;47.844;9.660;2023-11-18T12:54:08;1.15;;;0.60;;
26920;SDS011;14483;47.844;9.660;2023-11-18T12:56:37;3.03;;;0.70;;
26920;SDS011;14483;47.844;9.660;2023-11-18T12:59:05;2.53;;;0.70;;
26920;SDS011;14483;47.844;9.660;2023-11-18T13:01:34;1.50;;;0.70;;
26920;SDS011;14483;47.844;9.660;2023-11-18T13:04:01;5.80;;;1.20;;
26920;SDS011;14483;47.844;9.660;2023-11-18T13:06:28;2.00;;;0.68;;
26920;SDS011;14483;47.844;9.660;2023-11-18T13:08:54;1.30;;;0.50;;
26920;SDS011;14483;47.844;9.660;2023-11-18T13:11:21;1.98;;;0.55;;
26920;SDS011;14483;47.844;9.660;2023-11-18T13:13:49;1.10;;;0.63;;
26920;SDS011;14483;47.844;9.660;2023-11-18T13:16:16;1.98;;;0.68;;
26920;SDS011;14483;47.844;9.660;2023-11-18T13:18:43;1.25;;;0.55;;
26920;SDS011;14483;47.844;9.660;2023-11-18T13:21:15;1.42;;;0.50;;
26920;SDS011;14483;47.844;9.660;2023-11-18T13:23:45;0.95;;;0.40;;
26920;SDS011;14483;47.844;9.660;2023-11-18T13:26:12;2.10;;;0.50;;
26920;SDS011;14483;47.844;9.660;2023-11-18T13:28:38;1.85;;;0.90;;
26920;SDS011;14483;47.844;9.660;2023-11-18T13:31:05;1.60;;;0.70;;
26920;SDS011;14483;47.844;9.660;2023-11-18T13:33:37;3.33;;;1.17;;
26920;SDS011;14483;47.844;9.660;2023-11-18T13:36:04;1.83;;;0.73;;
26920;SDS011;14483;47.844;9.660;2023-11-18T13:38:30;2.15;;;0.90;;
26920;SDS011;14483;47.844;9.660;2023-11-18T13:40:57;1.55;;;0.75;;
26920;SDS011;14483;47.844;9.660;2023-11-18T13:43:23;3.60;;;1.00;;
26920;SDS011;14483;47.844;9.660;2023-11-18T13:45:50;1.35;;;0.47;;
26920;SDS011;14483;47.844;9.660;2023-11-18T13:48:17;3.03;;;1.20;;
26920;SDS011;14483;47.844;9.660;2023-11-18T13:50:45;5.53;;;1.90;;
26920;SDS011;14483;47.844;9.660;2023-11-18T13:53:11;5.20;;;1.63;;
26920;SDS011;14483;47.844;9.660;2023-11-18T13:55:38;3.35;;;0.80;;
26920;SDS011;14483;47.844;9.660;2023-11-18T13:58:05;1.67;;;0.68;;
26920;SDS011;14483;47.844;9.660;2023-11-18T14:00:31;3.03;;;0.88;;
26920;SDS011;14483;47.844;9.660;2023-11-18T14:02:58;1.23;;;0.70;;
26920;SDS011;14483;47.844;9.660;2023-11-18T14:05:24;2.35;;;0.88;;
26920;SDS011;14483;47.844;9.660;2023-11-18T14:07:53;1.02;;;0.50;;
26920;SDS011;14483;47.844;9.660;2023-11-18T14:10:20;1.77;;;0.90;;
26920;SDS011;14483;47.844;9.660;2023-11-18T14:12:59;1.52;;;0.60;;
26920;SDS011;14483;47.844;9.660;2023-11-18T14:15:26;1.77;;;0.60;;
26920;SDS011;14483;47.844;9.660;2023-11-18T14:17:52;1.83;;;0.60;;
26920;SDS011;14483;47.844;9.660;2023-11-18T14:20:19;1.95;;;0.88;;
26920;SDS011;14483;47.844;9.660;2023-11-18T14:22:47;1.33;;;0.70;;
26920;SDS011;14483;47.844;9.660;2023-11-18T14:25:15;1.70;;;0.80;;
26920;SDS011;14483;47.844;9.660;2023-11-18T14:27:42;2.30;;;0.90;;
26920;SDS011;14483;47.844;9.660;2023-11-18T14:30:09;1.88;;;0.88;;
26920;SDS011;14483;47.844;9.660;2023-11-18T14:32:35;3.08;;;0.95;;
26920;SDS011;14483;47.844;9.660;2023-11-18T14:35:03;1.65;;;0.75;;
26920;SDS011;14483;47.844;9.660;2023-11-18T14:37:34;2.20;;;1.20;;
26920;SDS011;14483;47.844;9.660;2023-11-18T14:40:00;3.72;;;1.20;;
26920;SDS011;14483;47.844;9.660;2023-11-18T14:42:31;2.30;;;1.00;;
26920;SDS011;14483;47.844;9.660;2023-11-18T14:44:57;3.00;;;1.13;;
26920;SDS011;14483;47.844;9.660;2023-11-18T14:47:23;1.20;;;0.60;;
26920;SDS011;14483;47.844;9.660;2023-11-18T14:49:50;3.50;;;1.48;;
26920;SDS011;14483;47.844;9.660;2023-11-18T14:52:16;3.55;;;1.23;;
26920;SDS011;14483;47.844;9.660;2023-11-18T14:54:43;1.50;;;0.88;;
26920;SDS011;14483;47.844;9.660;2023-11-18T14:57:09;0.98;;;0.75;;